Rr Barranquilla — NC12345 — position and weather

sailwx.info

Track history (hours):
 
Tides and Currents Weather Stations Pressure Air Temp Water Temp Dewpoint Dewpoint Depression Visibility Wind Speed Wind Dir Waves Ship Positions

Rr Barranquilla

Last reported at 2018-Jun-16 23:24 UTC. Time now 2018-Jun-22 03:36 UTC.
Position N 10°09' W 075°30'.

Length 37 m.

Type: Towing. MMSI: 799999999.

Date/timePositionNaut miles runAvg speedWind from/ knotsBaromVisibWave heightAir tempDewpointWater temp
2018-Jun-16 23:24N 10°09' W 075°30'2 4.8
2018-Jun-16 22:59N 10°11' W 075°30'2 3.5
2018-Jun-16 22:30N 10°12' W 075°31'1 2.9
2018-Jun-16 22:00N 10°14' W 075°31'3 5.1
2018-Jun-16 21:29N 10°16' W 075°31'1 0.4
2018-Jun-16 19:17N 10°17' W 075°31'0 0.6
2018-Jun-16 19:00N 10°17' W 075°31'0 0.0
2018-Jun-16 18:30N 10°17' W 075°31'0 0.0
2018-Jun-16 18:00N 10°17' W 075°31'0 0.0
2018-Jun-16 17:29N 10°17' W 075°31'0 0.0
2018-Jun-16 17:00N 10°17' W 075°31'0 0.0
2018-Jun-16 16:30N 10°17' W 075°31'0 0.0
2018-Jun-16 16:00N 10°17' W 075°31'1 0.1
2018-Jun-16 01:45N 10°17' W 075°33'1 0.1
2018-Jun-15 17:18N 10°17' W 075°31'2 6.8
2018-Jun-15 17:00N 10°15' W 075°31'3 5.9
2018-Jun-15 16:28N 10°12' W 075°31'2 4.9
2018-Jun-15 16:00N 10°14' W 075°31'3 5.6
2018-Jun-15 15:30N 10°17' W 075°31'0 0.0
2018-Jun-15 12:42N 10°17' W 075°31'1 6.1
2018-Jun-15 12:30N 10°16' W 075°31'4 6.6
2018-Jun-15 11:58N 10°13' W 075°31'0 0.1
2018-Jun-15 11:29N 10°12' W 075°31'0 0.7
2018-Jun-15 10:59N 10°12' W 075°31'3 6.0
2018-Jun-15 10:30N 10°09' W 075°30'  
Track history (hours):
 
Tides and Currents Weather Stations Pressure Air Temp Water Temp Dewpoint Dewpoint Depression Visibility Wind Speed Wind Dir Waves Ship Positions

Rr Barranquilla

Last reported at 2018-Jun-16 23:24 UTC. Time now 2018-Jun-22 03:36 UTC.
Position N 10°09' W 075°30'.

Length 37 m.

Type: Towing. MMSI: 799999999.

Date/timePositionNaut miles runAvg speedWind from/ knotsBaromVisibWave heightAir tempDewpointWater temp
2018-Jun-16 23:24N 10°09' W 075°30'2 4.8
2018-Jun-16 22:59N 10°11' W 075°30'2 3.5
2018-Jun-16 22:30N 10°12' W 075°31'1 2.9
2018-Jun-16 22:00N 10°14' W 075°31'3 5.1
2018-Jun-16 21:29N 10°16' W 075°31'1 0.4
2018-Jun-16 19:17N 10°17' W 075°31'0 0.6
2018-Jun-16 19:00N 10°17' W 075°31'0 0.0
2018-Jun-16 18:30N 10°17' W 075°31'0 0.0
2018-Jun-16 18:00N 10°17' W 075°31'0 0.0
2018-Jun-16 17:29N 10°17' W 075°31'0 0.0
2018-Jun-16 17:00N 10°17' W 075°31'0 0.0
2018-Jun-16 16:30N 10°17' W 075°31'0 0.0
2018-Jun-16 16:00N 10°17' W 075°31'1 0.1
2018-Jun-16 01:45N 10°17' W 075°33'1 0.1
2018-Jun-15 17:18N 10°17' W 075°31'2 6.8
2018-Jun-15 17:00N 10°15' W 075°31'3 5.9
2018-Jun-15 16:28N 10°12' W 075°31'2 4.9
2018-Jun-15 16:00N 10°14' W 075°31'3 5.6
2018-Jun-15 15:30N 10°17' W 075°31'0 0.0
2018-Jun-15 12:42N 10°17' W 075°31'1 6.1
2018-Jun-15 12:30N 10°16' W 075°31'4 6.6
2018-Jun-15 11:58N 10°13' W 075°31'0 0.1
2018-Jun-15 11:29N 10°12' W 075°31'0 0.7
2018-Jun-15 10:59N 10°12' W 075°31'3 6.0
2018-Jun-15 10:30N 10°09' W 075°30'  

Dump ship's entire track history